createdAt,value
2019-01-16T00:01:57.040Z,4.20
2019-01-16T00:07:44.754Z,4.30
2019-01-16T00:10:51.125Z,4.40
2019-01-16T00:16:58.255Z,4.20
2019-01-16T00:22:54.038Z,4.20
2019-01-16T00:26:00.256Z,4.20
2019-01-16T00:28:45.185Z,4.20
2019-01-16T00:31:51.570Z,4.20
2019-01-16T00:34:51.480Z,4.30
2019-01-16T00:37:57.852Z,4.40
2019-01-16T00:44:04.057Z,4.30
2019-01-16T00:47:10.430Z,4.10
2019-01-16T00:53:17.899Z,3.80
2019-01-16T00:56:00.807Z,3.80
2019-01-16T00:59:07.265Z,3.80
2019-01-16T01:02:06.832Z,3.90
2019-01-16T01:05:13.113Z,3.90
2019-01-16T01:07:54.305Z,4.00
2019-01-16T01:10:40.473Z,4.20
2019-01-16T01:13:22.978Z,4.10
2019-01-16T01:16:29.329Z,4.20
2019-01-16T01:19:11.091Z,4.30
2019-01-16T01:22:17.183Z,4.30
2019-01-16T01:24:58.511Z,4.40
2019-01-16T01:28:04.863Z,4.40
2019-01-16T01:30:49.185Z,4.50
2019-01-16T01:33:55.533Z,4.50
2019-01-16T01:40:03.117Z,4.70
2019-01-16T01:46:08.625Z,4.70
2019-01-16T01:52:16.240Z,4.80
2019-01-16T01:55:16.223Z,4.90
2019-01-16T02:04:12.974Z,5.10
2019-01-16T02:07:19.357Z,5.00
2019-01-16T02:10:01.682Z,5.10
2019-01-16T02:13:02.942Z,5.20
2019-01-16T02:16:03.074Z,5.10
2019-01-16T02:19:10.172Z,5.30
2019-01-16T02:21:55.973Z,5.30
2019-01-16T02:25:02.330Z,5.30
2019-01-16T02:27:45.455Z,5.30
2019-01-16T02:30:51.813Z,5.30
2019-01-16T02:33:34.467Z,5.30
2019-01-16T02:36:35.521Z,5.40
2019-01-16T02:39:42.909Z,5.40
2019-01-16T02:48:44.746Z,5.40
2019-01-16T02:54:58.189Z,5.40
2019-01-16T03:04:15.066Z,5.20
2019-01-16T03:10:05.562Z,5.20
2019-01-16T03:13:12.577Z,5.30
2019-01-16T03:16:12.542Z,5.20
2019-01-16T03:19:18.648Z,5.30
2019-01-16T03:22:04.405Z,5.30
2019-01-16T03:25:10.494Z,5.30
2019-01-16T03:27:52.606Z,5.30
2019-01-16T03:33:51.731Z,5.20
2019-01-16T03:39:44.974Z,5.30
2019-01-16T03:45:54.743Z,5.10
2019-01-16T03:49:01.110Z,5.00
2019-01-16T03:51:44.465Z,5.00
2019-01-16T03:54:50.605Z,4.90
2019-01-16T03:57:32.783Z,4.90
2019-01-16T04:00:38.883Z,5.00
2019-01-16T04:06:52.585Z,5.00
2019-01-16T04:09:52.245Z,4.90
2019-01-16T04:12:38.701Z,4.90
2019-01-16T04:15:38.673Z,4.90
2019-01-16T04:21:55.185Z,4.80
2019-01-16T04:27:45.746Z,4.80
2019-01-16T04:30:52.115Z,4.80
2019-01-16T04:33:52.566Z,4.80
2019-01-16T04:36:59.859Z,4.90
2019-01-16T04:45:56.449Z,4.80
2019-01-16T04:51:53.065Z,5.00
2019-01-16T04:57:54.560Z,4.80
2019-01-16T05:01:00.673Z,4.90
2019-01-16T05:03:42.660Z,4.90
2019-01-16T05:06:49.012Z,5.00
2019-01-16T05:09:31.123Z,4.90
2019-01-16T05:12:37.225Z,4.90
2019-01-16T05:18:43.272Z,5.00
2019-01-16T05:21:49.655Z,5.10
2019-01-16T05:24:29.719Z,5.10
2019-01-16T05:27:35.833Z,5.10
2019-01-16T05:30:37.839Z,5.10
2019-01-16T05:36:26.329Z,5.10
2019-01-16T05:39:32.446Z,5.20
2019-01-16T05:42:32.768Z,5.30
2019-01-16T05:45:38.883Z,5.20
2019-01-16T05:48:21.222Z,5.10
2019-01-16T05:51:27.541Z,5.10
2019-01-16T05:54:11.215Z,5.20
2019-01-16T06:00:18.158Z,5.10
2019-01-16T06:03:18.609Z,5.20
2019-01-16T06:06:24.748Z,5.20
2019-01-16T06:09:25.140Z,5.20
2019-01-16T06:12:27.394Z,5.20
2019-01-16T06:15:13.627Z,5.30
2019-01-16T06:17:53.656Z,5.30
2019-01-16T06:21:00.062Z,5.30
2019-01-16T06:23:41.830Z,5.30
2019-01-16T06:26:48.205Z,5.20
2019-01-16T06:29:30.562Z,5.40
2019-01-16T06:32:36.700Z,5.40
2019-01-16T06:35:20.580Z,5.30
2019-01-16T06:38:01.927Z,5.30
2019-01-16T06:44:09.567Z,5.30
2019-01-16T06:47:15.648Z,5.30
2019-01-16T06:50:16.604Z,5.40
2019-01-16T06:53:23.336Z,5.20
2019-01-16T06:56:05.678Z,5.30
2019-01-16T06:58:50.352Z,5.30
2019-01-16T07:01:32.564Z,5.20
2019-01-16T07:04:17.263Z,5.40
2019-01-16T07:07:23.386Z,5.40
2019-01-16T07:10:25.966Z,5.40
2019-01-16T07:16:19.069Z,5.40
2019-01-16T07:19:25.443Z,5.30
2019-01-16T07:22:08.296Z,5.40
2019-01-16T07:25:07.772Z,5.30
2019-01-16T07:28:14.121Z,5.30
2019-01-16T07:30:58.732Z,5.30
2019-01-16T07:34:04.811Z,5.30
2019-01-16T07:36:46.543Z,5.30
2019-01-16T07:39:52.665Z,5.30
2019-01-16T07:42:52.915Z,5.30
2019-01-16T07:45:59.327Z,5.30
2019-01-16T07:48:59.962Z,5.40
2019-01-16T07:51:42.223Z,5.30
2019-01-16T07:54:48.611Z,5.40
2019-01-16T07:57:29.733Z,5.40
2019-01-16T08:00:31.078Z,5.40
2019-01-16T08:03:12.761Z,5.40
2019-01-16T08:06:19.081Z,5.30
2019-01-16T08:09:20.772Z,5.40
2019-01-16T08:12:26.859Z,5.50
2019-01-16T08:15:27.410Z,5.40
2019-01-16T08:18:33.887Z,5.50
2019-01-16T08:21:34.003Z,5.60
2019-01-16T08:24:34.308Z,5.60
2019-01-16T08:27:42.253Z,5.60
2019-01-16T08:30:43.396Z,5.60
2019-01-16T08:33:44.939Z,5.50
2019-01-16T08:36:45.187Z,5.60
2019-01-16T08:39:45.980Z,5.70
2019-01-16T08:42:52.378Z,5.80
2019-01-16T08:45:33.886Z,5.80
2019-01-16T08:48:39.962Z,5.80
2019-01-16T08:51:40.263Z,5.90
2019-01-16T08:54:46.624Z,5.80
2019-01-16T08:57:47.124Z,5.90
2019-01-16T09:03:53.405Z,5.90
2019-01-16T09:06:35.279Z,6.00
2019-01-16T09:09:41.646Z,5.90
2019-01-16T09:12:23.830Z,5.90
2019-01-16T09:15:34.707Z,6.10
2019-01-16T09:21:45.747Z,6.10
2019-01-16T09:24:51.939Z,6.10
2019-01-16T09:27:52.390Z,6.10
2019-01-16T09:33:59.937Z,6.00
2019-01-16T09:37:06.306Z,6.00
2019-01-16T09:43:12.935Z,6.20
2019-01-16T09:49:26.078Z,6.10
2019-01-16T09:52:07.345Z,6.20
2019-01-16T09:55:13.456Z,6.20
2019-01-16T10:00:53.081Z,6.30
2019-01-16T10:03:59.520Z,6.20
2019-01-16T10:06:42.416Z,6.30
2019-01-16T10:09:43.073Z,6.30
2019-01-16T10:12:49.178Z,6.30
2019-01-16T10:15:33.512Z,6.50
2019-01-16T10:18:39.584Z,6.40
2019-01-16T10:21:24.646Z,6.30
2019-01-16T10:24:30.764Z,6.50
2019-01-16T10:27:30.577Z,6.60
2019-01-16T10:31:04.625Z,6.80
2019-01-16T10:33:49.243Z,6.40
2019-01-16T10:40:09.799Z,6.50
2019-01-16T10:42:54.359Z,6.50
2019-01-16T10:46:01.380Z,6.30
2019-01-16T10:48:49.637Z,6.50
2019-01-16T10:51:25.014Z,6.30
2019-01-16T10:54:31.128Z,6.20
2019-01-16T10:57:31.484Z,6.20
2019-01-16T11:00:31.618Z,6.20
2019-01-16T11:03:37.979Z,6.40
2019-01-16T11:06:22.510Z,6.50
2019-01-16T11:09:28.616Z,6.40
2019-01-16T11:12:30.665Z,6.50
2019-01-16T11:15:30.766Z,6.50
2019-01-16T11:18:30.905Z,6.50
2019-01-16T11:21:37.453Z,6.40
2019-01-16T11:24:37.980Z,6.50
2019-01-16T11:27:44.323Z,6.60
2019-01-16T11:30:45.641Z,6.90
2019-01-16T11:33:52.116Z,6.80
2019-01-16T11:36:34.071Z,6.90
2019-01-16T11:39:40.419Z,7.10
2019-01-16T11:42:41.368Z,7.30
2019-01-16T11:45:47.462Z,7.00
2019-01-16T11:48:29.029Z,7.00
2019-01-16T11:51:35.380Z,7.00
2019-01-16T11:54:21.756Z,6.90
2019-01-16T11:57:27.924Z,6.90
2019-01-16T12:00:14.003Z,6.80
2019-01-16T12:03:20.474Z,6.80
2019-01-16T12:06:20.345Z,6.80
2019-01-16T12:09:48.511Z,6.90
2019-01-16T12:15:55.780Z,6.90
2019-01-16T12:18:58.740Z,6.80
2019-01-16T12:25:14.925Z,6.50
2019-01-16T12:31:15.703Z,6.70
2019-01-16T12:34:22.090Z,6.60
2019-01-16T12:37:22.145Z,6.60
2019-01-16T12:40:28.606Z,6.50
2019-01-16T12:43:28.968Z,6.50
2019-01-16T12:46:35.069Z,6.40
2019-01-16T12:49:34.953Z,6.60
2019-01-16T12:52:21.465Z,6.50
2019-01-16T12:58:29.104Z,6.40
2019-01-16T13:01:29.006Z,6.40
2019-01-16T13:04:35.165Z,6.50
2019-01-16T13:07:18.165Z,6.40
2019-01-16T13:10:46.062Z,6.50
2019-01-16T13:13:28.403Z,6.40
2019-01-16T13:16:34.747Z,6.50
2019-01-16T13:19:18.604Z,6.40
2019-01-16T13:22:24.753Z,6.50
2019-01-16T13:25:06.041Z,6.60
2019-01-16T13:28:12.163Z,6.60
2019-01-16T13:31:12.993Z,6.60
2019-01-16T13:34:19.083Z,6.50
2019-01-16T13:37:00.589Z,6.60
2019-01-16T13:40:07.979Z,6.60
2019-01-16T13:46:27.473Z,6.50
2019-01-16T13:49:09.517Z,6.50
2019-01-16T13:51:54.192Z,6.40
2019-01-16T13:55:00.267Z,6.40
2019-01-16T13:57:41.470Z,6.50
2019-01-16T14:00:23.887Z,6.50
2019-01-16T14:03:29.971Z,6.50
2019-01-16T14:09:40.862Z,6.30
2019-01-16T14:12:22.184Z,6.40
2019-01-16T14:18:55.445Z,6.40
2019-01-16T14:21:55.180Z,6.40
2019-01-16T14:24:56.633Z,6.30
2019-01-16T14:27:41.683Z,6.40
2019-01-16T14:30:48.037Z,6.40
2019-01-16T14:33:48.025Z,6.40
2019-01-16T14:39:57.638Z,6.30
2019-01-16T14:45:45.011Z,6.20
2019-01-16T14:48:51.288Z,6.10
2019-01-16T14:51:34.046Z,6.10
2019-01-16T14:54:40.439Z,6.10
2019-01-16T14:57:22.432Z,6.20
2019-01-16T15:00:50.391Z,6.20
2019-01-16T15:03:30.686Z,6.10
2019-01-16T15:06:11.980Z,5.90
2019-01-16T15:09:20.444Z,6.00
2019-01-16T15:12:03.108Z,6.10
2019-01-16T15:15:02.863Z,6.00
2019-01-16T15:18:09.212Z,6.00
2019-01-16T15:20:56.288Z,6.00
2019-01-16T15:24:02.379Z,6.10
2019-01-16T15:26:44.022Z,6.00
2019-01-16T15:29:50.371Z,5.90
2019-01-16T15:32:36.895Z,5.80
2019-01-16T15:38:51.121Z,5.90
2019-01-16T15:41:38.033Z,5.80
2019-01-16T15:44:44.119Z,6.00
2019-01-16T15:47:45.653Z,6.00
2019-01-16T15:50:52.016Z,6.10
2019-01-16T16:00:15.865Z,5.90
2019-01-16T16:03:00.155Z,5.80
2019-01-16T16:09:07.362Z,5.60
2019-01-16T16:12:13.542Z,5.60
2019-01-16T16:14:59.179Z,5.60
2019-01-16T16:18:05.278Z,5.40
2019-01-16T16:21:06.988Z,5.20
2019-01-16T16:23:54.218Z,5.10
2019-01-16T16:26:56.585Z,4.90
2019-01-16T16:29:41.134Z,4.80
2019-01-16T16:32:47.538Z,4.70
2019-01-16T16:35:47.324Z,4.70
2019-01-16T16:41:39.633Z,4.50
2019-01-16T16:44:45.972Z,4.50
2019-01-16T16:47:48.060Z,4.50
2019-01-16T16:50:54.169Z,4.50
2019-01-16T16:53:37.227Z,4.30
2019-01-16T16:56:43.660Z,4.30
2019-01-16T17:02:46.475Z,4.00
2019-01-16T17:05:28.683Z,3.90
2019-01-16T17:08:35.135Z,4.00
2019-01-16T17:11:19.874Z,3.90
2019-01-16T17:14:26.309Z,4.00
2019-01-16T17:17:11.013Z,3.80
2019-01-16T17:20:17.385Z,3.60
2019-01-16T17:23:01.579Z,3.60
2019-01-16T17:29:10.269Z,3.50
2019-01-16T17:32:17.508Z,3.40
2019-01-16T17:44:26.666Z,3.20
2019-01-16T17:47:11.557Z,3.30
2019-01-16T17:49:55.309Z,3.20
2019-01-16T17:53:01.407Z,2.90
2019-01-16T17:56:01.917Z,3.20
2019-01-16T17:58:48.131Z,3.10
2019-01-16T18:01:48.141Z,3.10
2019-01-16T18:04:29.698Z,3.10
2019-01-16T18:07:35.760Z,3.00
2019-01-16T18:10:35.915Z,2.90
2019-01-16T18:16:27.671Z,2.90
2019-01-16T18:19:35.103Z,2.80
2019-01-16T18:22:16.546Z,2.90
2019-01-16T18:28:22.265Z,2.90
2019-01-16T18:31:21.943Z,2.90
2019-01-16T18:37:11.822Z,2.80
2019-01-16T18:43:03.610Z,2.90
2019-01-16T18:46:10.019Z,3.00
2019-01-16T18:52:16.320Z,3.20
2019-01-16T18:55:15.862Z,3.30
2019-01-16T18:58:22.027Z,3.40
2019-01-16T19:01:07.051Z,3.30
2019-01-16T19:13:56.393Z,3.60
2019-01-16T19:17:02.764Z,3.60
2019-01-16T19:19:49.028Z,3.60
2019-01-16T19:22:58.163Z,3.60
2019-01-16T19:25:42.397Z,3.40
2019-01-16T19:31:33.788Z,3.60
2019-01-16T19:34:40.212Z,3.30
2019-01-16T19:37:40.315Z,3.40
2019-01-16T19:40:46.703Z,3.60
2019-01-16T19:47:00.150Z,3.50
2019-01-16T19:50:02.924Z,3.50
2019-01-16T19:53:09.416Z,3.60
2019-01-16T19:56:09.354Z,3.50
2019-01-16T19:59:15.740Z,3.50
2019-01-16T20:02:15.287Z,3.60
2019-01-16T20:05:21.407Z,3.70
2019-01-16T20:08:23.913Z,3.80
2019-01-16T20:11:30.355Z,3.80
2019-01-16T20:14:12.023Z,3.70
2019-01-16T20:17:18.136Z,3.70
2019-01-16T20:20:03.503Z,3.70
2019-01-16T20:23:11.226Z,3.60
2019-01-16T20:25:56.855Z,3.70
2019-01-16T20:29:03.256Z,3.70
2019-01-16T20:32:04.009Z,3.80
2019-01-16T20:35:10.162Z,3.80
2019-01-16T20:37:54.190Z,3.80
2019-01-16T20:41:00.355Z,4.00
2019-01-16T20:43:44.359Z,4.00
2019-01-16T20:46:50.746Z,4.00
2019-01-16T20:49:33.402Z,3.80
2019-01-16T20:52:39.791Z,3.60
2019-01-16T20:55:45.693Z,3.60
2019-01-16T20:58:48.080Z,3.40
2019-01-16T21:01:48.190Z,3.40
2019-01-16T21:04:30.277Z,3.40
2019-01-16T21:13:23.041Z,3.20
2019-01-16T21:16:06.834Z,3.30
2019-01-16T21:18:51.683Z,3.30
2019-01-16T21:21:36.480Z,3.30
2019-01-16T21:24:07.715Z,3.30
2019-01-16T21:26:38.835Z,3.20
2019-01-16T21:29:13.509Z,3.10
2019-01-16T21:31:42.134Z,3.20
2019-01-16T21:34:27.915Z,3.20
2019-01-16T21:37:05.347Z,3.20
2019-01-16T21:39:33.779Z,3.20
2019-01-16T21:42:18.689Z,3.00
2019-01-16T21:45:03.439Z,3.00
2019-01-16T21:47:36.499Z,3.00
2019-01-16T21:50:14.987Z,3.00
2019-01-16T21:52:46.171Z,3.00
2019-01-16T21:55:23.411Z,3.00
2019-01-16T21:58:08.158Z,3.00
2019-01-16T22:00:36.415Z,3.00
2019-01-16T22:03:05.667Z,2.90
2019-01-16T22:05:51.613Z,2.80
2019-01-16T22:08:36.684Z,2.60
2019-01-16T22:11:13.920Z,2.70
2019-01-16T22:13:42.392Z,2.80
2019-01-16T22:16:09.131Z,2.80
2019-01-16T22:18:41.622Z,2.80
2019-01-16T22:21:09.839Z,2.80
2019-01-16T22:23:54.614Z,2.80
2019-01-16T22:26:25.468Z,2.80
2019-01-16T22:29:08.962Z,2.80
2019-01-16T22:31:41.517Z,2.70
2019-01-16T22:34:15.976Z,2.60
2019-01-16T22:36:50.278Z,2.50
2019-01-16T22:39:25.916Z,2.50
2019-01-16T22:42:00.594Z,2.60
2019-01-16T22:44:28.807Z,2.70
2019-01-16T22:46:57.513Z,2.70
2019-01-16T22:49:32.009Z,2.70
2019-01-16T22:52:09.487Z,2.70
2019-01-16T22:54:46.707Z,2.70
2019-01-16T22:57:17.802Z,2.60
2019-01-16T23:00:04.164Z,2.70
2019-01-16T23:02:40.221Z,2.70
2019-01-16T23:05:26.692Z,2.60
2019-01-16T23:07:58.970Z,2.60
2019-01-16T23:10:33.187Z,2.40
2019-01-16T23:13:01.741Z,2.30
2019-01-16T23:15:30.347Z,2.10
2019-01-16T23:18:15.165Z,2.00
2019-01-16T23:20:49.415Z,2.10
2019-01-16T23:23:20.293Z,2.00
2019-01-16T23:25:54.982Z,2.00
2019-01-16T23:28:28.864Z,1.90
2019-01-16T23:30:57.372Z,1.90
2019-01-16T23:33:26.574Z,2.00
2019-01-16T23:35:52.878Z,2.10
2019-01-16T23:38:37.596Z,2.10
2019-01-16T23:41:08.520Z,2.20
2019-01-16T23:43:39.618Z,2.30
2019-01-16T23:46:08.128Z,2.40
2019-01-16T23:48:45.101Z,2.40
2019-01-16T23:51:16.611Z,2.40
2019-01-16T23:53:56.056Z,2.30
2019-01-16T23:56:24.733Z,2.40
2019-01-16T23:58:55.944Z,2.30
